Terminal Aerodrome Forecast
Issued by NWS Shreveport, LA

Home | Current Version | Previous Version | Text Only | Print | Product List | Glossary On
Versions: 1 2 3 4 5 6 7 8 9 10 11 12 13 14 15 16
484
FTUS44 KSHV 010541
TAFTYR
TAF
KTYR 010541Z 0106/0206 VRB05KT P6SM VCSH SCT040 SCT120 OVC140
      TEMPO 0106/0110 5SM -SHRA BR BKN030
     FM011000 VRB03KT P6SM VCSH BKN040 BKN140
      TEMPO 0110/0114 4SM -SHRA BR BKN025
     FM011400 14006KT P6SM VCTS BKN025CB
     FM011700 16007KT P6SM VCTS BKN035CB
     FM020000 VRB04KT P6SM VCTS BKN025CB OVC040=

USA.gov is the U.S. government's official web portal to all federal, state and local government web resources and services.